createdAt,value
2018-07-27T00:00:17.853Z,970.25
2018-07-27T00:01:17.844Z,970.23
2018-07-27T00:02:17.844Z,970.24
2018-07-27T00:03:17.843Z,970.18
2018-07-27T00:04:17.845Z,970.18
2018-07-27T00:05:17.839Z,970.22
2018-07-27T00:06:17.839Z,970.20
2018-07-27T00:07:17.839Z,970.25
2018-07-27T00:08:17.838Z,970.24
2018-07-27T00:09:17.836Z,970.19
2018-07-27T00:10:17.838Z,970.22
2018-07-27T00:11:17.837Z,970.25
2018-07-27T00:12:17.837Z,970.20
2018-07-27T00:13:17.837Z,970.22
2018-07-27T00:14:17.835Z,970.24
2018-07-27T00:15:17.839Z,970.24
2018-07-27T00:16:17.836Z,970.26
2018-07-27T00:17:17.834Z,970.26
2018-07-27T00:18:17.833Z,970.23
2018-07-27T00:19:17.841Z,970.23
2018-07-27T00:20:17.832Z,970.25
2018-07-27T00:21:17.831Z,970.22
2018-07-27T00:22:17.831Z,970.24
2018-07-27T00:23:17.838Z,970.22
2018-07-27T00:24:17.829Z,970.22
2018-07-27T00:25:17.827Z,970.21
2018-07-27T00:26:17.831Z,970.16
2018-07-27T00:27:17.827Z,970.19
2018-07-27T00:28:17.827Z,970.17
2018-07-27T00:29:17.831Z,970.15
2018-07-27T00:30:17.826Z,970.15
2018-07-27T00:31:17.826Z,970.13
2018-07-27T00:32:17.828Z,970.14
2018-07-27T00:33:17.828Z,970.14
2018-07-27T00:34:17.821Z,970.17
2018-07-27T00:35:17.822Z,970.15
2018-07-27T00:36:17.826Z,970.17
2018-07-27T00:37:17.823Z,970.19
2018-07-27T00:38:17.820Z,970.18
2018-07-27T00:39:17.820Z,970.18
2018-07-27T00:40:17.817Z,970.15
2018-07-27T00:41:17.817Z,970.22
2018-07-27T00:42:17.818Z,970.19
2018-07-27T00:43:17.816Z,970.23
2018-07-27T00:44:17.820Z,970.18
2018-07-27T00:45:17.824Z,970.16
2018-07-27T00:46:17.813Z,970.18
2018-07-27T00:47:17.814Z,970.14
2018-07-27T00:48:17.810Z,970.13
2018-07-27T00:49:17.813Z,970.15
2018-07-27T00:50:17.814Z,970.13
2018-07-27T00:51:17.815Z,970.16
2018-07-27T00:52:17.816Z,970.12
2018-07-27T00:53:17.806Z,970.11
2018-07-27T00:54:17.806Z,970.16
2018-07-27T00:55:17.805Z,970.12
2018-07-27T00:56:17.806Z,970.07
2018-07-27T00:57:17.803Z,970.03
2018-07-27T00:58:17.809Z,970.05
2018-07-27T00:59:17.802Z,970.06
2018-07-27T01:00:17.798Z,970.00
2018-07-27T01:01:17.805Z,970.01
2018-07-27T01:02:17.802Z,969.97
2018-07-27T01:03:17.798Z,969.98
2018-07-27T01:04:17.797Z,969.96
2018-07-27T01:05:17.801Z,969.98
2018-07-27T01:06:17.794Z,969.97
2018-07-27T01:07:17.797Z,969.99
2018-07-27T01:08:17.796Z,970.01
2018-07-27T01:09:17.794Z,970.01
2018-07-27T01:10:17.792Z,969.98
2018-07-27T01:11:17.789Z,970.00
2018-07-27T01:12:17.786Z,970.02
2018-07-27T01:13:17.788Z,970.03
2018-07-27T01:14:17.791Z,970.00
2018-07-27T01:15:17.786Z,970.04
2018-07-27T01:16:17.784Z,970.02
2018-07-27T01:17:17.783Z,969.99
2018-07-27T01:18:17.782Z,970.00
2018-07-27T01:19:17.783Z,970.03
2018-07-27T01:20:17.784Z,970.01
2018-07-27T01:21:17.784Z,969.98
2018-07-27T01:22:17.780Z,969.92
2018-07-27T01:23:17.781Z,969.94
2018-07-27T01:24:17.774Z,969.94
2018-07-27T01:25:17.776Z,969.91
2018-07-27T01:26:17.772Z,969.91
2018-07-27T01:27:17.776Z,969.89
2018-07-27T01:28:17.774Z,969.90
2018-07-27T01:29:17.769Z,969.89
2018-07-27T01:30:17.773Z,969.83
2018-07-27T01:31:17.774Z,969.85
2018-07-27T01:32:17.766Z,969.79
2018-07-27T01:33:17.765Z,969.79
2018-07-27T01:34:17.773Z,969.77
2018-07-27T01:35:17.766Z,969.74
2018-07-27T01:36:17.768Z,969.75
2018-07-27T01:37:17.764Z,969.74
2018-07-27T01:38:17.759Z,969.73
2018-07-27T01:39:17.760Z,969.68
2018-07-27T01:40:17.766Z,969.69
2018-07-27T01:41:17.754Z,969.68
2018-07-27T01:42:17.756Z,969.68
2018-07-27T01:43:17.757Z,969.65
2018-07-27T01:44:17.757Z,969.65
2018-07-27T01:45:17.756Z,969.65
2018-07-27T01:46:17.752Z,969.62
2018-07-27T01:47:17.749Z,969.64
2018-07-27T01:48:17.744Z,969.68
2018-07-27T01:49:17.749Z,969.70
2018-07-27T01:50:17.745Z,969.66
2018-07-27T01:51:17.741Z,969.66
2018-07-27T01:52:17.747Z,969.63
2018-07-27T01:53:17.738Z,969.63
2018-07-27T01:54:17.741Z,969.63
2018-07-27T01:55:17.742Z,969.59
2018-07-27T01:56:17.736Z,969.61
2018-07-27T01:57:17.733Z,969.56
2018-07-27T01:58:17.732Z,969.54
2018-07-27T01:59:17.729Z,969.55
2018-07-27T02:00:17.729Z,969.52
2018-07-27T02:01:17.726Z,969.56
2018-07-27T02:02:17.728Z,969.52
2018-07-27T02:03:17.722Z,969.48
2018-07-27T02:04:17.726Z,969.49
2018-07-27T02:05:17.720Z,969.47
2018-07-27T02:06:17.717Z,969.49
2018-07-27T02:07:17.716Z,969.50
2018-07-27T02:08:17.716Z,969.50
2018-07-27T02:09:17.714Z,969.50
2018-07-27T02:10:17.712Z,969.49
2018-07-27T02:11:17.709Z,969.45
2018-07-27T02:12:17.708Z,969.43
2018-07-27T02:13:17.709Z,969.43
2018-07-27T02:14:17.707Z,969.45
2018-07-27T02:15:17.705Z,969.40
2018-07-27T02:16:17.706Z,969.39
2018-07-27T02:17:17.703Z,969.38
2018-07-27T02:18:17.698Z,969.33
2018-07-27T02:19:17.698Z,969.35
2018-07-27T02:20:17.694Z,969.37
2018-07-27T02:21:17.698Z,969.34
2018-07-27T02:22:17.698Z,969.39
2018-07-27T02:23:17.696Z,969.41
2018-07-27T02:24:17.691Z,969.41
2018-07-27T02:25:17.688Z,969.39
2018-07-27T02:26:17.689Z,969.41
2018-07-27T02:27:17.691Z,969.43
2018-07-27T02:28:17.680Z,969.49
2018-07-27T02:29:17.683Z,969.46
2018-07-27T02:30:17.686Z,969.48
2018-07-27T02:31:17.678Z,969.51
2018-07-27T02:32:17.675Z,969.53
2018-07-27T02:33:17.676Z,969.53
2018-07-27T02:34:17.673Z,969.55
2018-07-27T02:35:17.671Z,969.57
2018-07-27T02:36:17.676Z,969.62
2018-07-27T02:37:17.667Z,969.57
2018-07-27T02:38:17.669Z,969.58
2018-07-27T02:39:17.665Z,969.57
2018-07-27T02:40:17.668Z,969.56
2018-07-27T02:41:17.666Z,969.57
2018-07-27T02:42:17.659Z,969.52
2018-07-27T02:43:17.659Z,969.51
2018-07-27T02:44:17.661Z,969.47
2018-07-27T02:45:17.668Z,969.52
2018-07-27T02:46:17.653Z,969.49
2018-07-27T02:47:17.652Z,969.47
2018-07-27T02:48:17.652Z,969.51
2018-07-27T02:49:17.654Z,969.50
2018-07-27T02:50:17.647Z,969.55
2018-07-27T02:51:17.716Z,969.53
2018-07-27T02:52:17.645Z,969.48
2018-07-27T02:53:17.641Z,969.48
2018-07-27T02:54:17.647Z,969.48
2018-07-27T02:55:17.643Z,969.48
2018-07-27T02:56:17.635Z,969.46
2018-07-27T02:57:17.633Z,969.45
2018-07-27T02:58:17.636Z,969.41
2018-07-27T02:59:17.637Z,969.42
2018-07-27T03:00:17.629Z,969.42
2018-07-27T03:01:17.626Z,969.42
2018-07-27T03:02:17.623Z,969.42
2018-07-27T03:03:17.627Z,969.44
2018-07-27T03:04:17.621Z,969.43
2018-07-27T03:05:17.627Z,969.46
2018-07-27T03:06:17.620Z,969.43
2018-07-27T03:07:17.615Z,969.46
2018-07-27T03:08:17.619Z,969.43
2018-07-27T03:09:17.615Z,969.41
2018-07-27T03:10:17.614Z,969.47
2018-07-27T03:11:17.608Z,969.46
2018-07-27T03:12:17.604Z,969.46
2018-07-27T03:13:17.604Z,969.44
2018-07-27T03:14:17.604Z,969.45
2018-07-27T03:15:17.601Z,969.40
2018-07-27T03:16:17.599Z,969.45
2018-07-27T03:17:17.597Z,969.49
2018-07-27T03:18:17.600Z,969.48
2018-07-27T03:19:17.600Z,969.49
2018-07-27T03:20:17.593Z,969.52
2018-07-27T03:21:17.595Z,969.53
2018-07-27T03:22:17.589Z,969.54
2018-07-27T03:23:17.593Z,969.48
2018-07-27T03:24:17.582Z,969.51
2018-07-27T03:25:17.583Z,969.53
2018-07-27T03:26:17.580Z,969.51
2018-07-27T03:27:17.580Z,969.58
2018-07-27T03:28:17.574Z,969.57
2018-07-27T03:29:17.580Z,969.63
2018-07-27T03:30:17.573Z,969.63
2018-07-27T03:31:17.573Z,969.66
2018-07-27T03:32:17.575Z,969.69
2018-07-27T03:33:17.571Z,969.66
2018-07-27T03:34:17.568Z,969.66
2018-07-27T03:35:17.565Z,969.66
2018-07-27T03:36:17.564Z,969.69
2018-07-27T03:37:17.565Z,969.72
2018-07-27T03:38:17.617Z,969.72
2018-07-27T03:39:17.557Z,969.70
2018-07-27T03:40:17.554Z,969.74
2018-07-27T03:41:17.560Z,969.74
2018-07-27T03:42:17.551Z,969.78
2018-07-27T03:43:17.550Z,969.80
2018-07-27T03:44:17.546Z,969.77
2018-07-27T03:45:17.549Z,969.76
2018-07-27T03:46:17.544Z,969.81
2018-07-27T03:47:17.542Z,969.80
2018-07-27T03:48:17.539Z,969.77
2018-07-27T03:49:17.543Z,969.83
2018-07-27T03:50:17.535Z,969.82
2018-07-27T03:51:17.534Z,969.82
2018-07-27T03:52:17.536Z,969.87
2018-07-27T03:53:17.536Z,969.82
2018-07-27T03:54:17.530Z,969.81
2018-07-27T03:55:17.527Z,969.83
2018-07-27T03:56:17.527Z,969.81
2018-07-27T03:57:17.521Z,969.80
2018-07-27T03:58:17.519Z,969.79
2018-07-27T03:59:17.521Z,969.80
2018-07-27T04:00:17.517Z,969.80
2018-07-27T04:01:17.511Z,969.81
2018-07-27T04:02:17.574Z,969.82
2018-07-27T04:03:17.508Z,969.85
2018-07-27T04:04:17.512Z,969.83
2018-07-27T04:05:17.505Z,969.88
2018-07-27T04:06:17.506Z,969.86
2018-07-27T04:07:17.504Z,969.87
2018-07-27T04:08:17.496Z,969.87
2018-07-27T04:09:17.500Z,969.85
2018-07-27T04:10:17.499Z,969.84
2018-07-27T04:11:17.492Z,969.85
2018-07-27T04:12:17.490Z,969.87
2018-07-27T04:13:17.485Z,969.84
2018-07-27T04:14:17.489Z,969.86
2018-07-27T04:15:17.483Z,969.88
2018-07-27T04:16:17.479Z,969.94
2018-07-27T04:17:17.477Z,969.92
2018-07-27T04:18:17.475Z,969.90
2018-07-27T04:19:17.473Z,969.94
2018-07-27T04:20:17.472Z,969.95
2018-07-27T04:21:17.467Z,969.95
2018-07-27T04:22:17.508Z,969.97
2018-07-27T04:23:17.469Z,969.96
2018-07-27T04:24:17.460Z,969.96
2018-07-27T04:25:17.458Z,969.95
2018-07-27T04:26:17.464Z,969.96
2018-07-27T04:27:17.461Z,969.99
2018-07-27T04:28:17.457Z,969.96
2018-07-27T04:29:17.455Z,969.97
2018-07-27T04:30:17.448Z,969.91
2018-07-27T04:31:17.448Z,969.91
2018-07-27T04:32:17.444Z,969.93
2018-07-27T04:33:17.442Z,969.93
2018-07-27T04:34:17.442Z,969.90
2018-07-27T04:35:17.446Z,969.91
2018-07-27T04:36:17.436Z,969.95
2018-07-27T04:37:17.436Z,969.94
2018-07-27T04:38:17.430Z,969.98
2018-07-27T04:39:17.430Z,969.99
2018-07-27T04:40:17.424Z,969.95
2018-07-27T04:41:17.422Z,970.00
2018-07-27T04:42:17.427Z,970.01
2018-07-27T04:43:17.421Z,970.03
2018-07-27T04:44:17.421Z,970.00
2018-07-27T04:45:17.418Z,970.06
2018-07-27T04:46:17.422Z,970.07
2018-07-27T04:47:17.424Z,970.09
2018-07-27T04:48:17.417Z,970.14
2018-07-27T04:49:17.422Z,970.09
2018-07-27T04:50:17.419Z,970.13
2018-07-27T04:51:17.425Z,970.18
2018-07-27T04:52:17.419Z,970.19
2018-07-27T04:53:17.428Z,970.22
2018-07-27T04:54:17.425Z,970.19
2018-07-27T04:55:17.427Z,970.22
2018-07-27T04:56:17.460Z,970.23
2018-07-27T04:57:17.432Z,970.22
2018-07-27T04:58:17.440Z,970.23
2018-07-27T04:59:17.443Z,970.28
2018-07-27T05:00:17.443Z,970.30
2018-07-27T05:01:17.451Z,970.28
2018-07-27T05:02:17.447Z,970.22
2018-07-27T05:03:17.453Z,970.20
2018-07-27T05:04:17.457Z,970.23
2018-07-27T05:05:17.464Z,970.25
2018-07-27T05:06:17.466Z,970.23
2018-07-27T05:07:17.474Z,970.20
2018-07-27T05:08:17.474Z,970.20
2018-07-27T05:09:17.482Z,970.19
2018-07-27T05:10:17.486Z,970.15
2018-07-27T05:11:17.495Z,970.15
2018-07-27T05:12:17.497Z,970.13
2018-07-27T05:13:17.502Z,970.13
2018-07-27T05:14:17.510Z,970.17
2018-07-27T05:15:17.513Z,970.17
2018-07-27T05:16:17.520Z,970.18
2018-07-27T05:17:17.523Z,970.16
2018-07-27T05:18:17.642Z,970.23
2018-07-27T05:19:17.540Z,970.21
2018-07-27T05:20:17.539Z,970.22
2018-07-27T05:21:17.549Z,970.20
2018-07-27T05:22:17.553Z,970.15
2018-07-27T05:23:17.555Z,970.15
2018-07-27T05:24:17.559Z,970.15
2018-07-27T05:25:17.566Z,970.18
2018-07-27T05:26:17.567Z,970.15
2018-07-27T05:27:17.570Z,970.17
2018-07-27T05:28:17.574Z,970.15
2018-07-27T05:29:17.577Z,970.23
2018-07-27T05:30:17.582Z,970.21
2018-07-27T05:31:17.585Z,970.21
2018-07-27T05:32:17.593Z,970.21
2018-07-27T05:33:17.591Z,970.28
2018-07-27T05:34:17.630Z,970.30
2018-07-27T05:35:17.600Z,970.28
2018-07-27T05:36:17.595Z,970.21
2018-07-27T05:37:17.604Z,970.23
2018-07-27T05:38:17.599Z,970.18
2018-07-27T05:39:17.607Z,970.23
2018-07-27T05:40:17.604Z,970.22
2018-07-27T05:41:17.605Z,970.24
2018-07-27T05:42:17.606Z,970.18
2018-07-27T05:43:17.608Z,970.20
2018-07-27T05:44:17.612Z,970.23
2018-07-27T05:45:17.613Z,970.23
2018-07-27T05:46:17.609Z,970.22
2018-07-27T05:47:17.613Z,970.21
2018-07-27T05:48:17.612Z,970.26
2018-07-27T05:49:17.618Z,970.24
2018-07-27T05:50:17.620Z,970.20
2018-07-27T05:51:17.617Z,970.20
2018-07-27T05:52:17.615Z,970.25
2018-07-27T05:53:17.619Z,970.22
2018-07-27T05:54:17.619Z,970.18
2018-07-27T05:55:17.623Z,970.20
2018-07-27T05:56:17.620Z,970.18
2018-07-27T05:57:17.624Z,970.17
2018-07-27T05:58:17.631Z,970.17
2018-07-27T05:59:17.627Z,970.17
2018-07-27T06:00:17.631Z,970.18
2018-07-27T06:01:17.690Z,970.19
2018-07-27T06:02:17.632Z,970.21
2018-07-27T06:03:17.629Z,970.21
2018-07-27T06:04:17.630Z,970.23
2018-07-27T06:05:17.631Z,970.21
2018-07-27T06:06:17.632Z,970.20
2018-07-27T06:07:17.631Z,970.21
2018-07-27T06:08:17.632Z,970.21
2018-07-27T06:09:17.633Z,970.23
2018-07-27T06:10:17.635Z,970.25
2018-07-27T06:11:17.704Z,970.23
2018-07-27T06:12:17.640Z,970.28
2018-07-27T06:13:17.639Z,970.28
2018-07-27T06:14:17.637Z,970.32
2018-07-27T06:15:17.644Z,970.30
2018-07-27T06:16:17.645Z,970.33
2018-07-27T06:17:17.641Z,970.35
2018-07-27T06:18:17.648Z,970.31
2018-07-27T06:19:17.642Z,970.30
2018-07-27T06:20:17.644Z,970.31
2018-07-27T06:21:17.647Z,970.29
2018-07-27T06:22:17.646Z,970.31
2018-07-27T06:23:17.647Z,970.27
2018-07-27T06:24:17.755Z,970.28
2018-07-27T06:25:17.648Z,970.33
2018-07-27T06:26:17.650Z,970.29
2018-07-27T06:27:17.652Z,970.28
2018-07-27T06:28:17.688Z,970.29
2018-07-27T06:29:17.715Z,970.27
2018-07-27T06:30:17.654Z,970.26
2018-07-27T06:31:17.661Z,970.26
2018-07-27T06:32:17.656Z,970.26
2018-07-27T06:33:17.661Z,970.25
2018-07-27T06:34:17.659Z,970.28
2018-07-27T06:35:17.659Z,970.28
2018-07-27T06:36:17.659Z,970.24
2018-07-27T06:37:17.662Z,970.26
2018-07-27T06:38:17.664Z,970.24
2018-07-27T06:39:17.670Z,970.28
2018-07-27T06:40:17.670Z,970.23
2018-07-27T06:41:17.672Z,970.21
2018-07-27T06:42:17.671Z,970.27
2018-07-27T06:43:17.672Z,970.25
2018-07-27T06:44:17.671Z,970.29
2018-07-27T06:45:17.704Z,970.30
2018-07-27T06:46:17.679Z,970.27
2018-07-27T06:47:17.676Z,970.21
2018-07-27T06:48:17.684Z,970.23
2018-07-27T06:49:17.679Z,970.23
2018-07-27T06:50:17.681Z,970.22
2018-07-27T06:51:17.682Z,970.20
2018-07-27T06:52:17.709Z,970.20
2018-07-27T06:53:17.689Z,970.21
2018-07-27T06:54:17.687Z,970.22
2018-07-27T06:55:17.690Z,970.19
2018-07-27T06:56:17.689Z,970.17
2018-07-27T06:57:17.694Z,970.23
2018-07-27T06:58:17.702Z,970.24
2018-07-27T06:59:17.699Z,970.28
2018-07-27T07:00:17.699Z,970.25
2018-07-27T07:01:17.706Z,970.29
2018-07-27T07:02:17.703Z,970.29
2018-07-27T07:03:17.704Z,970.24
2018-07-27T07:04:17.706Z,970.26
2018-07-27T07:05:17.711Z,970.25
2018-07-27T07:06:17.710Z,970.25
2018-07-27T07:07:17.715Z,970.26
2018-07-27T07:08:17.714Z,970.23
2018-07-27T07:09:17.719Z,970.21
2018-07-27T07:10:17.720Z,970.23
2018-07-27T07:11:17.728Z,970.16
2018-07-27T07:12:17.726Z,970.20
2018-07-27T07:13:17.728Z,970.21
2018-07-27T07:14:17.734Z,970.21
2018-07-27T07:15:17.732Z,970.23
2018-07-27T07:16:17.737Z,970.22
2018-07-27T07:17:17.736Z,970.24
2018-07-27T07:18:17.738Z,970.25
2018-07-27T07:19:17.747Z,970.28
2018-07-27T07:20:17.750Z,970.24
2018-07-27T07:21:17.747Z,970.27
2018-07-27T07:22:17.754Z,970.26
2018-07-27T07:23:17.751Z,970.23
2018-07-27T07:24:17.754Z,970.26
2018-07-27T07:25:17.874Z,970.22
2018-07-27T07:26:17.760Z,970.22
2018-07-27T07:27:17.764Z,970.19
2018-07-27T07:28:17.768Z,970.25
2018-07-27T07:29:17.767Z,970.22
2018-07-27T07:30:17.773Z,970.16
2018-07-27T07:31:17.777Z,970.17
2018-07-27T07:32:17.773Z,970.17
2018-07-27T07:33:17.847Z,970.17
2018-07-27T07:34:17.779Z,970.13
2018-07-27T07:35:17.783Z,970.15
2018-07-27T07:36:17.785Z,970.17
2018-07-27T07:37:17.791Z,970.13
2018-07-27T07:38:17.791Z,970.16
2018-07-27T07:39:17.797Z,970.14
2018-07-27T07:40:17.797Z,970.15
2018-07-27T07:41:17.807Z,970.15
2018-07-27T07:42:17.803Z,970.14
2018-07-27T07:43:17.809Z,970.13
2018-07-27T07:44:17.813Z,970.11
2018-07-27T07:45:17.816Z,970.09
2018-07-27T07:46:17.821Z,970.11
2018-07-27T07:47:17.823Z,970.08
2018-07-27T07:48:17.826Z,970.10
2018-07-27T07:49:17.898Z,970.08
2018-07-27T07:50:17.831Z,970.07
2018-07-27T07:51:17.837Z,970.09
2018-07-27T07:52:17.837Z,970.07
2018-07-27T07:53:17.837Z,970.04
2018-07-27T07:54:17.839Z,970.07
2018-07-27T07:55:17.843Z,970.06
2018-07-27T07:56:17.852Z,969.97
2018-07-27T07:57:17.848Z,969.96
2018-07-27T07:58:17.853Z,970.03
2018-07-27T07:59:17.858Z,970.05
2018-07-27T08:00:17.862Z,970.06
2018-07-27T08:01:17.866Z,969.95
2018-07-27T08:02:17.865Z,969.99
2018-07-27T08:03:17.867Z,969.97
2018-07-27T08:04:17.925Z,970.01
2018-07-27T08:05:17.879Z,969.98
2018-07-27T08:06:17.878Z,969.98
2018-07-27T08:07:17.880Z,969.96
2018-07-27T08:08:17.882Z,969.99
2018-07-27T08:09:17.886Z,969.96
2018-07-27T08:10:17.897Z,969.99
2018-07-27T08:11:18.010Z,969.96
2018-07-27T08:12:17.895Z,969.96
2018-07-27T08:13:17.902Z,969.96
2018-07-27T08:14:17.903Z,969.94
2018-07-27T08:15:17.908Z,969.95
2018-07-27T08:16:17.910Z,969.95
2018-07-27T08:17:18.002Z,969.94
2018-07-27T08:18:17.918Z,969.92
2018-07-27T08:19:17.923Z,969.90
2018-07-27T08:20:17.928Z,969.92
2018-07-27T08:21:17.928Z,969.90
2018-07-27T08:22:17.935Z,969.86
2018-07-27T08:23:17.935Z,969.82
2018-07-27T08:24:17.942Z,969.84
2018-07-27T08:25:17.947Z,969.87
2018-07-27T08:26:17.946Z,969.83
2018-07-27T08:27:17.950Z,969.86
2018-07-27T08:28:17.952Z,969.85
2018-07-27T08:29:17.957Z,969.85
2018-07-27T08:30:17.967Z,969.89
2018-07-27T08:31:17.966Z,969.84
2018-07-27T08:32:17.968Z,969.84
2018-07-27T08:33:17.974Z,969.82
2018-07-27T08:34:17.977Z,969.81
2018-07-27T08:35:17.987Z,969.81
2018-07-27T08:36:17.983Z,969.83
2018-07-27T08:37:17.987Z,969.80
2018-07-27T08:38:17.994Z,969.80
2018-07-27T08:39:17.998Z,969.78
2018-07-27T08:40:18.001Z,969.76
2018-07-27T08:41:18.007Z,969.76
2018-07-27T08:42:18.011Z,969.75
2018-07-27T08:43:18.015Z,969.73
2018-07-27T08:44:18.021Z,969.72
2018-07-27T08:45:18.021Z,969.72
2018-07-27T08:46:18.032Z,969.72
2018-07-27T08:47:18.061Z,969.70
2018-07-27T08:48:18.038Z,969.70
2018-07-27T08:49:18.039Z,969.71
2018-07-27T08:50:18.058Z,969.69
2018-07-27T08:51:18.050Z,969.69
2018-07-27T08:52:18.058Z,969.69
2018-07-27T08:53:18.060Z,969.70
2018-07-27T08:54:18.067Z,969.69
2018-07-27T08:55:18.066Z,969.66
2018-07-27T08:56:18.136Z,969.67
2018-07-27T08:57:18.078Z,969.68
2018-07-27T08:58:18.082Z,969.68
2018-07-27T08:59:18.084Z,969.67
2018-07-27T09:00:18.087Z,969.66
2018-07-27T09:01:18.092Z,969.68
2018-07-27T09:02:18.098Z,969.66
2018-07-27T09:03:18.101Z,969.65
2018-07-27T09:04:18.107Z,969.66
2018-07-27T09:05:18.115Z,969.63
2018-07-27T09:06:18.115Z,969.67
2018-07-27T09:07:18.121Z,969.63
2018-07-27T09:08:18.124Z,969.66
2018-07-27T09:09:18.129Z,969.62
2018-07-27T09:10:18.150Z,969.63
2018-07-27T09:11:18.138Z,969.60
2018-07-27T09:12:18.143Z,969.58
2018-07-27T09:13:18.148Z,969.62
2018-07-27T09:14:18.158Z,969.57
2018-07-27T09:15:18.165Z,969.53
2018-07-27T09:16:18.167Z,969.59
2018-07-27T09:17:18.228Z,969.62
2018-07-27T09:18:18.223Z,969.58
2018-07-27T09:19:18.177Z,969.60
2018-07-27T09:20:18.181Z,969.63
2018-07-27T09:21:18.187Z,969.65
2018-07-27T09:22:18.191Z,969.64
2018-07-27T09:23:18.197Z,969.58
2018-07-27T09:24:18.229Z,969.53
2018-07-27T09:25:18.531Z,969.52
2018-07-27T09:26:18.212Z,969.54
2018-07-27T09:27:18.215Z,969.55
2018-07-27T09:28:18.219Z,969.55
2018-07-27T09:29:18.227Z,969.55
2018-07-27T09:30:18.227Z,969.51
2018-07-27T09:31:18.235Z,969.50
2018-07-27T09:32:18.239Z,969.53
2018-07-27T09:33:18.244Z,969.47
2018-07-27T09:34:18.302Z,969.45
2018-07-27T09:35:18.381Z,969.44
2018-07-27T09:36:18.256Z,969.45
2018-07-27T09:37:18.260Z,969.49
2018-07-27T09:38:18.265Z,969.46
2018-07-27T09:39:18.271Z,969.47
2018-07-27T09:40:18.288Z,969.44
2018-07-27T09:41:18.280Z,969.44
2018-07-27T09:42:18.282Z,969.39
2018-07-27T09:43:18.292Z,969.48
2018-07-27T09:44:18.292Z,969.40
2018-07-27T09:45:18.304Z,969.41
2018-07-27T09:46:18.302Z,969.42
2018-07-27T09:47:18.306Z,969.42
2018-07-27T09:48:18.317Z,969.42
2018-07-27T09:49:18.315Z,969.41
2018-07-27T09:50:18.326Z,969.45
2018-07-27T09:51:18.328Z,969.40
2018-07-27T09:52:18.327Z,969.44
2018-07-27T09:53:18.333Z,969.37
2018-07-27T09:54:18.355Z,969.37
2018-07-27T09:55:18.346Z,969.41
2018-07-27T09:56:18.345Z,969.41
2018-07-27T09:57:18.353Z,969.41
2018-07-27T09:58:18.360Z,969.41
2018-07-27T09:59:18.363Z,969.48
2018-07-27T10:00:18.366Z,969.41
2018-07-27T10:01:18.369Z,969.41
2018-07-27T10:02:18.378Z,969.40
2018-07-27T10:03:18.383Z,969.36
2018-07-27T10:04:18.383Z,969.32
2018-07-27T10:05:18.391Z,969.36
2018-07-27T10:06:18.397Z,969.37
2018-07-27T10:07:18.396Z,969.34
2018-07-27T10:08:18.401Z,969.29
2018-07-27T10:09:18.407Z,969.32
2018-07-27T10:10:18.410Z,969.30
2018-07-27T10:11:18.416Z,969.39
2018-07-27T10:12:18.420Z,969.31
2018-07-27T10:13:18.424Z,969.31
2018-07-27T10:14:18.432Z,969.35
2018-07-27T10:15:18.434Z,969.31
2018-07-27T10:16:18.438Z,969.30
2018-07-27T10:17:18.440Z,969.27
2018-07-27T10:18:18.447Z,969.31
2018-07-27T10:19:18.456Z,969.30
2018-07-27T10:20:18.454Z,969.28
2018-07-27T10:21:18.459Z,969.21
2018-07-27T10:22:18.462Z,969.24
2018-07-27T10:23:18.474Z,969.22
2018-07-27T10:24:18.473Z,969.26
2018-07-27T10:25:18.480Z,969.20
2018-07-27T10:26:18.487Z,969.13
2018-07-27T10:27:18.487Z,969.15
2018-07-27T10:28:18.495Z,969.15
2018-07-27T10:29:18.498Z,969.14
2018-07-27T10:30:18.500Z,969.24
2018-07-27T10:31:18.573Z,969.21
2018-07-27T10:32:18.519Z,969.17
2018-07-27T10:33:18.514Z,969.23
2018-07-27T10:34:18.524Z,969.20
2018-07-27T10:35:18.530Z,969.21
2018-07-27T10:36:18.529Z,969.20
2018-07-27T10:37:18.535Z,969.19
2018-07-27T10:38:18.544Z,969.15
2018-07-27T10:39:18.544Z,969.09
2018-07-27T10:40:18.549Z,969.07
2018-07-27T10:41:18.559Z,969.09
2018-07-27T10:42:18.560Z,969.12
2018-07-27T10:43:18.562Z,969.15
2018-07-27T10:44:18.571Z,969.09
2018-07-27T10:45:18.576Z,969.11
2018-07-27T10:46:18.583Z,969.15
2018-07-27T10:47:18.589Z,969.12
2018-07-27T10:48:18.587Z,969.09
2018-07-27T10:49:18.591Z,969.09
2018-07-27T10:50:18.638Z,969.13
2018-07-27T10:51:18.605Z,969.10
2018-07-27T10:52:18.605Z,969.14
2018-07-27T10:53:18.612Z,969.06
2018-07-27T10:54:18.617Z,969.14
2018-07-27T10:55:18.622Z,969.08
2018-07-27T10:56:18.648Z,969.04
2018-07-27T10:57:18.635Z,969.17
2018-07-27T10:58:18.635Z,969.13
2018-07-27T10:59:18.645Z,969.09
2018-07-27T11:00:18.644Z,969.14
2018-07-27T11:01:18.651Z,969.06
2018-07-27T11:02:18.702Z,969.03
2018-07-27T11:03:18.664Z,968.99
2018-07-27T11:04:18.670Z,968.94
2018-07-27T11:05:18.667Z,969.00
2018-07-27T11:06:18.674Z,969.01
2018-07-27T11:07:18.677Z,969.00
2018-07-27T11:08:18.688Z,968.94
2018-07-27T11:09:18.687Z,968.97
2018-07-27T11:10:18.691Z,968.98
2018-07-27T11:11:18.697Z,968.93
2018-07-27T11:12:18.699Z,968.86
2018-07-27T11:13:18.706Z,968.92
2018-07-27T11:14:18.710Z,968.88
2018-07-27T11:15:18.767Z,968.85
2018-07-27T11:16:18.766Z,968.80
2018-07-27T11:17:18.771Z,968.85
2018-07-27T11:18:18.738Z,968.86
2018-07-27T11:19:18.736Z,968.75
2018-07-27T11:20:18.738Z,968.84
2018-07-27T11:21:18.763Z,968.87
2018-07-27T11:22:18.750Z,968.88
2018-07-27T11:23:18.754Z,968.83
2018-07-27T11:24:18.766Z,968.84
2018-07-27T11:25:18.763Z,968.78
2018-07-27T11:26:18.772Z,968.84
2018-07-27T11:27:18.778Z,968.75
2018-07-27T11:28:18.779Z,968.72
2018-07-27T11:29:18.787Z,968.70
2018-07-27T11:30:18.788Z,968.79
2018-07-27T11:31:18.797Z,968.81
2018-07-27T11:32:18.795Z,968.72
2018-07-27T11:33:18.801Z,968.70
2018-07-27T11:34:18.814Z,968.67
2018-07-27T11:35:18.813Z,968.68
2018-07-27T11:36:18.821Z,968.70
2018-07-27T11:37:18.852Z,968.70
2018-07-27T11:38:18.828Z,968.64
2018-07-27T11:39:18.830Z,968.76
2018-07-27T11:40:18.837Z,968.79
2018-07-27T11:41:18.850Z,968.65
2018-07-27T11:42:18.935Z,968.66
2018-07-27T11:43:18.855Z,968.62
2018-07-27T11:44:18.861Z,968.65
2018-07-27T11:45:18.860Z,968.58
2018-07-27T11:46:18.867Z,968.58
2018-07-27T11:47:18.870Z,968.58
2018-07-27T11:48:18.877Z,968.53
2018-07-27T11:49:18.917Z,968.59
2018-07-27T11:50:18.888Z,968.53
2018-07-27T11:51:18.892Z,968.51
2018-07-27T11:52:18.898Z,968.59
2018-07-27T11:53:18.902Z,968.56
2018-07-27T11:54:18.913Z,968.60
2018-07-27T11:55:18.918Z,968.50
2018-07-27T11:56:18.921Z,968.51
2018-07-27T11:57:18.921Z,968.49
2018-07-27T11:58:18.926Z,968.50
2018-07-27T11:59:18.936Z,968.50
2018-07-27T12:00:18.953Z,968.47
2018-07-27T12:01:18.942Z,968.43
2018-07-27T12:02:18.949Z,968.45
2018-07-27T12:03:18.958Z,968.43
2018-07-27T12:04:18.955Z,968.44
2018-07-27T12:05:18.964Z,968.40
2018-07-27T12:06:18.974Z,968.40
2018-07-27T12:07:18.974Z,968.37
2018-07-27T12:08:18.977Z,968.40
2018-07-27T12:09:18.988Z,968.36
2018-07-27T12:10:18.993Z,968.38
2018-07-27T12:11:19.001Z,968.34
2018-07-27T12:12:19.002Z,968.34
2018-07-27T12:13:19.011Z,968.33
2018-07-27T12:14:19.183Z,968.30
2018-07-27T12:15:19.253Z,968.29
2018-07-27T12:16:19.030Z,968.35
2018-07-27T12:17:19.029Z,968.31
2018-07-27T12:18:19.038Z,968.30
2018-07-27T12:19:19.040Z,968.31
2018-07-27T12:20:19.054Z,968.33
2018-07-27T12:21:19.150Z,968.29
2018-07-27T12:22:19.064Z,968.25
2018-07-27T12:23:19.071Z,968.17
2018-07-27T12:24:19.069Z,968.20
2018-07-27T12:25:19.082Z,968.31
2018-07-27T12:26:19.081Z,968.30
2018-07-27T12:27:19.089Z,968.24
2018-07-27T12:28:19.094Z,968.24